Mendip, United Kingdom
Current Conditions -  °F | °C
As of 6:20 PM on Monday 26 Jan 2015 (Local Time) from EGGD Reporting Station
Scattered Clouds Scattered Clouds  
Wind Chill: 34°   Ceiling: Unl
Heat Index: 41°   Visibility: 6mi
Dew Point: 36°   Wind: 12mph
Humidity: 81%   Direction: 290°WNW
Pressure: 30.33"   Gusts: NA
Location:  51.24°N, 2.63°W
Report Text: EGGD 261820Z 29010KT 9999 SCT031 05/02 Q1027
Loading
Personal Weather Stations






























Interactive Weather Map New forecast layout! Learn more

10-Day Weather Forecast

Advertisements
Track Severe Weather on mobile